createdAt,value
2019-03-18T07:13:44.149Z,5.87
2019-03-18T07:16:13.163Z,5.40
2019-03-18T07:18:42.266Z,7.45
2019-03-18T07:21:11.276Z,7.62
2019-03-18T07:23:40.327Z,8.93
2019-03-18T07:26:09.401Z,7.40
2019-03-18T07:28:38.410Z,9.10
2019-03-18T07:31:07.457Z,6.72
2019-03-18T07:33:36.490Z,5.47
2019-03-18T07:36:05.515Z,5.42
2019-03-18T07:38:34.526Z,7.87
2019-03-18T07:41:03.547Z,6.62
2019-03-18T07:43:32.542Z,7.10
2019-03-18T07:46:01.564Z,10.88
2019-03-18T07:48:31.585Z,6.85
2019-03-18T07:51:01.770Z,7.80
2019-03-18T07:53:30.865Z,8.33
2019-03-18T07:56:09.207Z,5.72
2019-03-18T07:58:30.639Z,7.85
2019-03-18T08:00:59.842Z,9.58
2019-03-18T08:03:28.962Z,6.92
2019-03-18T08:05:57.975Z,10.35
2019-03-18T08:08:27.195Z,10.63
2019-03-18T08:10:56.260Z,8.98
2019-03-18T08:13:25.307Z,8.40
2019-03-18T08:15:54.350Z,33.70
2019-03-18T08:18:23.378Z,46.23
2019-03-18T08:20:52.391Z,25.20
2019-03-18T08:23:21.412Z,29.25
2019-03-18T08:25:50.439Z,34.08
2019-03-18T08:28:19.460Z,25.27
2019-03-18T08:30:48.485Z,48.65
2019-03-18T08:33:17.847Z,25.30
2019-03-18T08:35:46.859Z,38.02
2019-03-18T08:38:15.879Z,47.90
2019-03-18T08:40:44.915Z,40.85
2019-03-18T08:43:13.926Z,73.45
2019-03-18T08:45:42.987Z,42.73
2019-03-18T08:48:12.001Z,25.45
2019-03-18T08:50:41.064Z,55.03
2019-03-18T08:53:10.098Z,33.73
2019-03-18T08:55:39.111Z,50.90
2019-03-18T08:58:09.844Z,70.10
2019-03-18T09:00:40.974Z,47.25
2019-03-18T09:03:09.999Z,35.78
2019-03-18T09:05:39.015Z,76.65
2019-03-18T09:08:08.058Z,56.92
2019-03-18T09:10:37.075Z,36.95
2019-03-18T09:13:06.091Z,47.83
2019-03-18T09:15:35.122Z,89.25
2019-03-18T09:18:04.138Z,47.17
2019-03-18T09:20:34.162Z,53.08
2019-03-18T09:23:03.180Z,43.02
2019-03-18T09:25:32.223Z,56.05
2019-03-18T09:28:01.288Z,67.27
2019-03-18T09:30:30.309Z,49.05
2019-03-18T09:32:59.352Z,69.40
2019-03-18T09:35:28.412Z,65.22
2019-03-18T09:37:57.494Z,40.52
2019-03-18T09:40:29.171Z,50.78
2019-03-18T09:42:57.323Z,49.42
2019-03-18T09:45:26.386Z,45.23
2019-03-18T09:47:56.341Z,43.05
2019-03-18T09:50:25.520Z,51.28
2019-03-18T09:52:54.584Z,73.60
2019-03-18T09:55:23.659Z,60.60
2019-03-18T09:57:52.781Z,45.98
2019-03-18T10:00:22.313Z,45.90
2019-03-18T10:02:51.359Z,28.62
2019-03-18T10:05:20.390Z,54.23
2019-03-18T10:07:49.413Z,32.23
2019-03-18T10:10:18.447Z,30.88
2019-03-18T10:12:47.505Z,24.05
2019-03-18T10:15:18.731Z,51.90
2019-03-18T10:17:47.783Z,64.82
2019-03-18T10:20:16.802Z,46.77
2019-03-18T10:22:45.819Z,36.10
2019-03-18T10:25:14.838Z,48.42
2019-03-18T10:27:43.859Z,78.87
2019-03-18T10:30:16.763Z,52.95
2019-03-18T10:32:45.774Z,60.60
2019-03-18T10:35:15.398Z,40.00
2019-03-18T10:37:44.426Z,64.87
2019-03-18T10:40:14.559Z,39.73
2019-03-18T10:42:43.651Z,43.98
2019-03-18T10:45:15.972Z,41.30
2019-03-18T10:47:45.001Z,44.35
2019-03-18T10:50:18.886Z,47.75
2019-03-18T10:52:47.991Z,62.67
2019-03-18T10:55:17.053Z,35.10
2019-03-18T10:57:46.150Z,35.80
2019-03-18T11:00:16.995Z,53.63
2019-03-18T11:02:46.018Z,41.75
2019-03-18T11:05:15.251Z,34.95
2019-03-18T11:07:44.306Z,51.83
2019-03-18T11:10:23.020Z,63.65
2019-03-18T11:12:49.497Z,31.73
2019-03-18T11:15:20.228Z,18.87
2019-03-18T11:17:49.270Z,34.65
2019-03-18T11:20:18.496Z,38.88
2019-03-18T11:22:47.549Z,36.15
2019-03-18T11:25:19.394Z,38.23
2019-03-18T11:27:48.451Z,24.52
2019-03-18T11:30:21.119Z,53.17
2019-03-18T11:32:50.149Z,73.28
2019-03-18T11:35:19.191Z,31.35
2019-03-18T11:37:48.223Z,57.05
2019-03-18T11:40:19.062Z,52.50
2019-03-18T11:42:48.091Z,30.30
2019-03-18T11:45:17.792Z,26.75
2019-03-18T11:47:46.840Z,69.53
2019-03-18T11:50:19.679Z,36.35
2019-03-18T11:52:48.741Z,21.52
2019-03-18T11:55:23.878Z,32.15
2019-03-18T11:57:52.956Z,26.93
2019-03-18T12:00:23.726Z,29.90
2019-03-18T12:02:52.764Z,34.10
2019-03-18T12:05:31.439Z,33.65
2019-03-18T12:08:00.503Z,40.92
2019-03-18T12:10:29.572Z,64.20
2019-03-18T12:12:58.642Z,33.13
2019-03-18T12:15:36.398Z,114.37
2019-03-18T12:17:59.337Z,41.83
2019-03-18T12:20:28.351Z,43.13
2019-03-18T12:22:57.374Z,84.05
2019-03-18T12:25:26.443Z,39.45
2019-03-18T12:27:55.586Z,38.33
2019-03-18T12:30:26.368Z,27.65
2019-03-18T12:32:55.419Z,26.20
2019-03-18T12:35:24.623Z,23.70
2019-03-18T12:37:55.371Z,38.80
2019-03-18T12:40:24.392Z,31.02
2019-03-18T12:42:53.453Z,69.42
2019-03-18T12:45:24.778Z,45.03
2019-03-18T12:47:53.810Z,18.87
2019-03-18T12:50:39.173Z,45.60
2019-03-18T12:52:55.256Z,30.25
2019-03-18T12:55:24.404Z,23.22
2019-03-18T12:57:53.470Z,37.30
2019-03-18T13:00:28.978Z,25.10
2019-03-18T13:02:58.004Z,21.57
2019-03-18T13:05:27.092Z,26.02
2019-03-18T13:08:00.572Z,27.55
2019-03-18T13:10:26.861Z,41.15
2019-03-18T13:12:58.496Z,23.85
2019-03-18T13:15:27.517Z,22.87
2019-03-18T13:17:56.537Z,39.60
2019-03-18T13:20:25.573Z,41.42
2019-03-18T13:22:54.610Z,41.18
2019-03-18T13:25:23.632Z,32.65
2019-03-18T13:27:52.668Z,38.88
2019-03-18T13:30:24.173Z,25.02
2019-03-18T13:32:53.530Z,41.05
2019-03-18T13:35:22.555Z,55.48
2019-03-18T13:37:51.583Z,41.95
2019-03-18T13:40:20.841Z,31.02
2019-03-18T13:42:49.921Z,42.48
2019-03-18T13:45:25.032Z,43.15
2019-03-18T13:47:54.051Z,42.80
2019-03-18T13:50:23.451Z,27.62
2019-03-18T13:52:52.494Z,43.13
2019-03-18T13:55:21.506Z,50.17
2019-03-18T13:57:50.546Z,40.60
2019-03-18T14:00:23.304Z,27.58
2019-03-18T14:02:52.406Z,33.05
2019-03-18T14:05:21.511Z,30.97
2019-03-18T14:08:00.258Z,38.28
2019-03-18T14:10:24.879Z,51.10
2019-03-18T14:12:53.913Z,33.95
2019-03-18T14:15:26.167Z,47.60
2019-03-18T14:17:55.186Z,21.48
2019-03-18T14:20:31.534Z,49.88
2019-03-18T14:23:00.663Z,110.30
2019-03-18T14:25:29.677Z,52.48
2019-03-18T14:27:58.729Z,59.20
2019-03-18T14:30:27.789Z,63.85
2019-03-18T14:32:56.809Z,98.67
2019-03-18T14:35:25.851Z,62.70
2019-03-18T14:37:54.901Z,35.17
2019-03-18T14:40:26.257Z,31.25
2019-03-18T14:42:55.291Z,31.80
2019-03-18T14:45:24.854Z,29.23
2019-03-18T14:47:53.874Z,13.32
2019-03-18T14:50:22.923Z,15.23
2019-03-18T14:52:51.943Z,41.90
2019-03-18T14:55:20.964Z,35.75
2019-03-18T14:57:50.003Z,76.50
2019-03-18T15:00:28.401Z,110.57
2019-03-18T15:02:57.433Z,68.55
2019-03-18T15:05:26.743Z,89.45
2019-03-18T15:07:55.801Z,89.85
2019-03-18T15:10:27.282Z,97.00
2019-03-18T15:12:56.314Z,93.12
2019-03-18T15:15:25.394Z,98.33
2019-03-18T15:17:54.455Z,140.18
2019-03-18T15:20:28.404Z,130.37
2019-03-18T15:22:57.430Z,133.50
2019-03-18T15:25:35.196Z,171.18
2019-03-18T15:28:04.247Z,119.80
2019-03-18T15:30:33.311Z,89.35
2019-03-18T15:33:02.391Z,102.42
2019-03-18T15:35:31.451Z,108.92
2019-03-18T15:38:00.625Z,180.80
2019-03-18T15:40:30.305Z,114.97
2019-03-18T15:42:59.386Z,148.90
2019-03-18T15:45:28.423Z,105.17
2019-03-18T15:47:57.487Z,103.70
2019-03-18T15:50:31.023Z,123.70
2019-03-18T15:53:00.069Z,101.80
2019-03-18T15:55:29.155Z,159.03
2019-03-18T15:57:58.206Z,93.27
2019-03-18T16:00:29.595Z,109.42
2019-03-18T16:02:58.660Z,55.58
2019-03-18T16:05:27.719Z,46.10
2019-03-18T16:07:56.802Z,37.88
2019-03-18T16:10:25.855Z,50.12
2019-03-18T16:12:54.955Z,42.67
2019-03-18T16:15:23.991Z,50.03
2019-03-18T16:17:53.986Z,56.70
2019-03-18T16:20:28.013Z,51.08
2019-03-18T16:22:57.036Z,54.38
2019-03-18T16:25:26.065Z,87.70
2019-03-18T16:27:55.099Z,71.07
2019-03-18T16:30:25.845Z,55.78
2019-03-18T16:32:54.815Z,82.53
2019-03-18T16:35:23.836Z,82.55
2019-03-18T16:37:52.858Z,71.20
2019-03-18T16:40:25.405Z,89.03
2019-03-18T16:42:54.515Z,89.45
2019-03-18T16:45:23.545Z,102.17
2019-03-18T16:47:52.588Z,95.12
2019-03-18T16:50:27.005Z,124.65
2019-03-18T16:52:56.024Z,128.87
2019-03-18T16:55:25.057Z,105.00
2019-03-18T16:57:54.080Z,134.03
2019-03-18T17:00:25.128Z,90.03
2019-03-18T17:02:54.159Z,128.05
2019-03-18T17:05:23.192Z,131.22
2019-03-18T17:07:54.254Z,115.32
2019-03-18T17:10:22.989Z,126.27
2019-03-18T17:12:52.011Z,156.12
2019-03-18T17:15:22.254Z,126.22
2019-03-18T17:17:51.279Z,124.18
2019-03-18T17:20:20.295Z,109.70
2019-03-18T17:22:50.414Z,120.28
2019-03-18T17:25:34.445Z,114.05
2019-03-18T17:28:05.269Z,136.52
2019-03-18T17:30:34.298Z,109.05
2019-03-18T17:33:03.348Z,132.20
2019-03-18T17:35:32.375Z,112.97
2019-03-18T17:38:01.397Z,128.90
2019-03-18T17:40:30.429Z,144.15
2019-03-18T17:42:59.486Z,119.87
2019-03-18T17:45:28.479Z,143.05
2019-03-18T17:47:57.499Z,102.72
2019-03-18T17:50:31.692Z,142.80
2019-03-18T17:53:03.872Z,145.92
2019-03-18T17:55:31.539Z,153.20
2019-03-18T17:58:00.570Z,141.65
2019-03-18T18:00:40.028Z,128.72
2019-03-18T18:03:09.059Z,129.05
2019-03-18T18:05:38.147Z,127.15
2019-03-18T18:08:07.169Z,141.90
2019-03-18T18:10:36.199Z,125.60
2019-03-18T18:13:05.223Z,116.62
2019-03-18T18:15:34.252Z,120.28
2019-03-18T18:18:03.279Z,109.55
2019-03-18T18:20:32.306Z,116.05
2019-03-18T18:23:13.244Z,120.75
2019-03-18T18:25:32.081Z,146.22
2019-03-18T18:28:01.109Z,120.50
2019-03-18T18:30:30.132Z,124.50
2019-03-18T18:32:59.165Z,142.47
2019-03-18T18:35:28.231Z,112.22
2019-03-18T18:37:57.295Z,143.68
2019-03-18T18:40:30.176Z,133.52
2019-03-18T18:42:59.190Z,145.30
2019-03-18T18:45:28.214Z,126.50
2019-03-18T18:47:57.231Z,114.52
2019-03-18T18:50:26.266Z,151.15
2019-03-18T18:52:55.292Z,148.50
2019-03-18T18:55:24.353Z,137.47
2019-03-18T18:57:53.371Z,166.47
2019-03-18T19:00:24.769Z,126.95
2019-03-18T19:02:53.798Z,133.87
2019-03-18T19:05:22.820Z,137.35
2019-03-18T19:07:51.847Z,149.93
2019-03-18T19:10:21.711Z,133.52
2019-03-18T19:12:50.758Z,117.57
2019-03-18T19:15:27.249Z,133.25
2019-03-18T19:17:56.272Z,160.00
2019-03-18T19:20:25.303Z,132.20
2019-03-18T19:22:58.046Z,149.42
2019-03-18T19:25:27.096Z,112.17
2019-03-18T19:27:56.120Z,137.55
2019-03-18T19:30:27.206Z,118.40
2019-03-18T19:32:56.160Z,142.95
2019-03-18T19:35:25.183Z,136.12
2019-03-18T19:37:54.209Z,122.87
2019-03-18T19:40:25.500Z,135.35
2019-03-18T19:42:54.565Z,133.50
2019-03-18T19:45:23.589Z,132.25
2019-03-18T19:47:53.451Z,118.47
2019-03-18T19:50:29.167Z,119.77
2019-03-18T19:52:58.207Z,125.30
2019-03-18T19:55:27.235Z,109.42
2019-03-18T19:57:56.263Z,129.93
2019-03-18T20:00:30.163Z,153.85
2019-03-18T20:03:02.498Z,135.50
2019-03-18T20:05:30.111Z,122.67
2019-03-18T20:07:59.140Z,145.28
2019-03-18T20:10:28.203Z,117.72
2019-03-18T20:12:57.680Z,119.93
2019-03-18T20:15:26.704Z,130.57
2019-03-18T20:17:55.731Z,110.60
2019-03-18T20:20:25.115Z,122.20
2019-03-18T20:22:54.146Z,113.20
2019-03-18T20:25:23.158Z,94.42
2019-03-18T20:27:52.775Z,157.88
2019-03-18T20:30:22.907Z,113.88
2019-03-18T20:32:51.930Z,113.30
2019-03-18T20:35:25.212Z,128.10
2019-03-18T20:37:54.227Z,150.10
2019-03-18T20:40:23.261Z,154.15
2019-03-18T20:42:52.285Z,124.30
2019-03-18T20:45:24.199Z,120.57
2019-03-18T20:47:53.222Z,175.68
2019-03-18T20:50:25.659Z,94.07
2019-03-18T20:52:54.686Z,130.63
2019-03-18T20:55:23.711Z,167.87
2019-03-18T20:57:52.737Z,153.30
2019-03-18T21:00:24.137Z,139.05
2019-03-18T21:02:53.176Z,109.12
2019-03-18T21:05:24.822Z,141.47
2019-03-18T21:07:52.955Z,151.78
2019-03-18T21:10:22.330Z,130.90
2019-03-18T21:12:51.364Z,138.18
2019-03-18T21:15:20.388Z,128.15
2019-03-18T21:17:49.417Z,143.17
2019-03-18T21:20:26.042Z,125.62
2019-03-18T21:22:55.062Z,129.65
2019-03-18T21:25:24.091Z,102.60
2019-03-18T21:27:55.206Z,144.35
2019-03-18T21:30:24.514Z,112.88
2019-03-18T21:32:53.603Z,143.60
2019-03-18T21:35:22.667Z,138.28
2019-03-18T21:37:51.684Z,162.65
2019-03-18T21:40:21.458Z,140.18
2019-03-18T21:42:50.478Z,159.75
2019-03-18T21:45:24.588Z,152.15
2019-03-18T21:47:53.616Z,125.50
2019-03-18T21:50:22.637Z,132.87
2019-03-18T21:52:51.664Z,129.18
2019-03-18T21:55:20.758Z,127.50
2019-03-18T21:57:49.811Z,160.07
2019-03-18T22:00:23.104Z,129.68
2019-03-18T22:02:52.120Z,150.47
2019-03-18T22:05:21.156Z,174.90
2019-03-18T22:07:50.181Z,121.15
2019-03-18T22:10:20.746Z,141.60
2019-03-18T22:12:49.778Z,151.97
2019-03-18T22:15:18.875Z,156.40
2019-03-18T22:17:47.899Z,108.37
2019-03-18T22:20:20.870Z,130.57
2019-03-18T22:22:49.131Z,141.85
2019-03-18T22:25:18.191Z,139.32
2019-03-18T22:27:47.170Z,151.07
2019-03-18T22:30:18.670Z,147.15
2019-03-18T22:32:48.126Z,168.82
2019-03-18T22:35:17.180Z,129.87
2019-03-18T22:37:46.198Z,145.28
2019-03-18T22:40:17.791Z,118.30
2019-03-18T22:42:46.818Z,128.97
2019-03-18T22:45:17.077Z,129.85
2019-03-18T22:47:46.079Z,106.78
2019-03-18T22:50:16.617Z,155.50
2019-03-18T22:52:45.626Z,180.20
2019-03-18T22:55:15.479Z,113.95
2019-03-18T22:57:44.563Z,116.30
2019-03-18T23:00:22.685Z,130.18
2019-03-18T23:02:51.782Z,114.25
2019-03-18T23:05:20.807Z,119.70
2019-03-18T23:07:49.836Z,116.93
2019-03-18T23:10:18.932Z,119.45
2019-03-18T23:12:47.991Z,170.87
2019-03-18T23:15:17.012Z,149.82
2019-03-18T23:17:46.028Z,115.35
2019-03-18T23:20:15.053Z,147.80
2019-03-18T23:22:44.081Z,114.00
2019-03-18T23:25:13.143Z,118.22
2019-03-18T23:27:42.169Z,144.57
2019-03-18T23:30:30.405Z,147.30
2019-03-18T23:32:56.833Z,184.40
2019-03-18T23:35:25.859Z,117.87
2019-03-18T23:37:54.889Z,143.47
2019-03-18T23:40:23.924Z,129.00
2019-03-18T23:42:52.953Z,127.90
2019-03-18T23:45:21.980Z,152.85
2019-03-18T23:47:51.304Z,155.80
2019-03-18T23:50:20.330Z,174.62
2019-03-18T23:52:49.355Z,128.80
2019-03-18T23:55:20.006Z,109.15
2019-03-18T23:57:49.287Z,146.32
